Linden, NJ

10:32 AM EST on December 17, 2017 (GMT -0500)
Linden

Weather History for KLDJ - April, 2014

Change the Weather History Date:

Wednesday, April 30, 2014

  Actual Average (KEWR) Record (KEWR)
Temperature  
Mean Temperature 48 °F -  
Max Temperature 54 °F 68 °F 91 °F (1942)
Min Temperature 43 °F 49 °F 34 °F (1931)
Degree Days  
Heating Degree Days 16    
Moisture  
Dew Point 46 °F    
Average Humidity 92    
Maximum Humidity 96    
Minimum Humidity 80    
Precipitation  
Precipitation 3.80 in - - ()
Sea Level Pressure  
Sea Level Pressure 30.26 in    
Wind  
Wind Speed 13 mph (East)    
Max Wind Speed 17 mph    
Max Gust Speed 25 mph    
Visibility 4 miles    
Events Rain    
Averages and records for this station are not official NWS values.
T = Trace of Precipitation, MM = Missing Value Source: NWS Daily Summary

Daily Weather History Graph

Daily Weather History Graph

Search for Another Location

Airport or City:

Trip Planner

Search our weather history database for the weather conditions in past years. The results will help you decide how hot, cold, wet, or windy it might be!

Date:

Astronomy

Apr. 30, 2014 Rise Set
Actual Time 5:57 AM EDT 7:51 PM EDT
Civil Twilight 5:27 AM EDT 8:21 PM EDT
Nautical Twilight 4:51 AM EDT 8:57 PM EDT
Astronomical Twilight 4:12 AM EDT 9:36 PM EDT
Moon 6:56 AM EDT (4/30) 9:28 PM EDT (4/30)
Length of Visible Light 14h 53m
Length of Day
13h 54m
New Moon, 2% of the Moon is Illuminated
Apr 30
New Moon
May 6
First Quarter
May 14
Full
May 21
Last Quarter
May 28
New

Hourly Weather History & Observations

Time (EDT) Temp. Windchill Dew Point Humidity Pressure Visibility Wind Dir Wind Speed Gust Speed Precip Events Conditions
12:15 AM 45.0 °F 37.9 °F 39.7 °F 82% 30.40 in 10.0 mi ESE 16.1 mph 24.2 mph N/A   Overcast
12:35 AM 45.0 °F 37.6 °F 39.4 °F 81% 30.40 in 10.0 mi ESE 17.3 mph 24.2 mph N/A   Overcast
12:55 AM 45.0 °F 37.9 °F 39.2 °F 80% 30.40 in 10.0 mi East 16.1 mph - N/A   Overcast
1:15 AM 45.1 °F 39.5 °F 39.2 °F 80% 30.41 in 10.0 mi East 11.5 mph 25.3 mph N/A   Overcast
1:35 AM 44.8 °F 38.3 °F 39.2 °F 81% 30.41 in 7.0 mi East 13.8 mph - N/A   Drizzle
1:55 AM 44.2 °F 38.0 °F 39.6 °F 84% 30.40 in 5.0 mi East 12.7 mph - 0.06 in Rain Light Rain
2:15 AM 44.1 °F 38.1 °F 40.1 °F 86% 30.39 in 5.0 mi East 11.5 mph - 0.05 in Rain Light Rain
2:35 AM 43.9 °F 38.3 °F 40.5 °F 88% 30.38 in 5.0 mi East 10.4 mph - 0.08 in Rain Light Rain
2:55 AM 43.7 °F 37.7 °F 40.3 °F 88% 30.38 in 5.0 mi East 11.5 mph - 0.12 in Rain Light Rain
3:35 AM 43.7 °F 38.1 °F 40.5 °F 88% 30.38 in 5.0 mi East 10.4 mph - 0.04 in Rain Rain
3:55 AM 43.7 °F 38.1 °F 40.3 °F 88% 30.39 in 5.0 mi ENE 10.4 mph - 0.07 in Rain Light Rain
4:15 AM 43.7 °F 36.9 °F 40.5 °F 88% 30.38 in 5.0 mi East 13.8 mph - 0.03 in Rain Light Rain
4:35 AM 43.7 °F 36.9 °F 40.5 °F 88% 30.36 in 5.0 mi East 13.8 mph 18.4 mph 0.05 in Rain Rain
4:55 AM 43.7 °F 36.6 °F 40.5 °F 88% 30.35 in 5.0 mi East 15.0 mph 20.7 mph 0.05 in Rain Light Rain
5:15 AM 43.7 °F 36.6 °F 40.3 °F 88% 30.35 in 5.0 mi East 15.0 mph - N/A   Light Drizzle
5:35 AM 43.7 °F 37.3 °F 40.5 °F 88% 30.36 in 4.0 mi East 12.7 mph 19.6 mph 0.03 in Rain Light Rain
5:55 AM 43.7 °F 37.7 °F 41.0 °F 90% 30.35 in 4.0 mi East 11.5 mph 17.3 mph 0.05 in Rain Rain
6:15 AM 43.7 °F 37.7 °F 41.5 °F 92% 30.36 in 4.0 mi East 11.5 mph 16.1 mph 0.01 in   Drizzle
6:35 AM 43.7 °F 38.1 °F 41.7 °F 93% 30.36 in 2.5 mi East 10.4 mph - 0.06 in Rain Light Rain
7:15 AM 44.2 °F 39.2 °F 42.4 °F 93% 30.36 in 1.8 mi East 9.2 mph - N/A   Drizzle
7:35 AM 44.6 °F 39.7 °F 42.8 °F 93% 30.36 in 1.8 mi East 9.2 mph - 0.01 in   Drizzle
7:55 AM 44.6 °F 39.7 °F 42.8 °F 93% 30.37 in 1.8 mi East 9.2 mph - 0.06 in Rain Rain
8:15 AM 44.8 °F 39.9 °F 43.2 °F 94% 30.36 in 2.5 mi East 9.2 mph - N/A Rain Rain
8:35 AM 45.0 °F 39.7 °F 43.3 °F 94% 30.36 in 2.0 mi ESE 10.4 mph - 0.01 in   Drizzle
8:55 AM 45.1 °F 39.1 °F 43.7 °F 95% 30.35 in 1.2 mi East 12.7 mph - 0.02 in Rain Light Rain
9:15 AM 45.5 °F 39.9 °F 43.7 °F 93% 30.35 in 1.2 mi East 11.5 mph - N/A Rain Rain
9:35 AM 45.5 °F 41.8 °F 44.1 °F 95% 30.35 in 1.2 mi East 6.9 mph 17.3 mph 0.02 in   Drizzle
9:55 AM 45.9 °F 40.0 °F 44.6 °F 95% 30.34 in 1.5 mi East 12.7 mph 18.4 mph 0.04 in   Drizzle
10:15 AM 46.0 °F 39.0 °F 44.6 °F 95% 30.34 in 2.0 mi East 17.3 mph 21.9 mph 0.02 in Rain Rain
10:35 AM 46.4 °F 40.1 °F 44.6 °F 93% 30.33 in 3.0 mi ESE 15.0 mph 23.0 mph 0.07 in Rain Light Rain
10:55 AM 46.6 °F - 44.8 °F 93% 30.34 in 3.0 mi ESE 12.7 mph - 0.12 in Rain Light Rain
11:15 AM 46.8 °F - 45.0 °F 93% 30.34 in 2.5 mi East 12.7 mph - 0.08 in Rain Light Rain
11:35 AM 46.8 °F - 45.0 °F 93% 30.33 in 4.0 mi ESE 9.2 mph 19.6 mph 0.13 in Rain Rain
11:55 AM 46.8 °F - 45.0 °F 93% 30.32 in 2.5 mi ESE 12.7 mph - 0.24 in Rain Light Rain
12:15 PM 47.3 °F - 45.5 °F 93% 30.32 in 3.0 mi ESE 9.2 mph 19.6 mph 0.05 in Rain Rain
12:35 PM 47.5 °F - 45.7 °F 93% 30.32 in 3.0 mi East 8.1 mph 16.1 mph 0.14 in Rain Light Rain
12:55 PM 47.7 °F - 45.9 °F 93% 30.31 in 2.5 mi East 6.9 mph - 0.24 in Rain Rain
1:15 PM 47.8 °F - 46.0 °F 93% 30.31 in 3.0 mi East 9.2 mph - 0.06 in Rain Rain
1:35 PM 48.2 °F - 46.4 °F 93% 30.30 in 4.0 mi East 6.9 mph 11.5 mph 0.12 in Rain Light Rain
2:15 PM 48.7 °F - 47.3 °F 95% 30.27 in 2.5 mi East 10.4 mph - 0.02 in Rain Light Rain
2:35 PM 49.3 °F - 47.8 °F 95% 30.25 in 1.8 mi ESE 12.7 mph - 0.07 in Rain Light Rain
2:55 PM 49.5 °F - 47.8 °F 94% 30.22 in 2.0 mi East 17.3 mph 24.2 mph 0.08 in Rain Light Rain
3:15 PM 49.5 °F - 47.8 °F 94% 30.23 in 2.0 mi ESE 12.7 mph 21.9 mph 0.01 in Rain Light Rain
3:35 PM 49.5 °F - 47.8 °F 94% 30.22 in 2.0 mi East 17.3 mph - 0.08 in Rain Light Rain
3:55 PM 49.3 °F - 47.8 °F 95% 30.20 in 2.0 mi East 16.1 mph 23.0 mph 0.19 in Rain Heavy Rain
4:15 PM 49.5 °F - 48.2 °F 95% 30.21 in 2.5 mi East 15.0 mph 19.6 mph 0.06 in Rain Light Rain
4:35 PM 49.6 °F - 48.2 °F 95% 30.22 in 3.0 mi East 10.4 mph 17.3 mph 0.14 in Rain Rain
4:55 PM 50.2 °F - 48.7 °F 95% 30.21 in 2.0 mi East 15.0 mph 20.7 mph 0.27 in Rain Heavy Rain
5:15 PM 50.4 °F - 49.1 °F 95% 30.19 in 2.5 mi ESE 16.1 mph 23.0 mph 0.11 in Rain Rain
5:35 PM 50.9 °F - 49.3 °F 94% 30.21 in 2.0 mi East 10.4 mph 20.7 mph 0.27 in Rain Rain
6:15 PM 50.9 °F - 49.5 °F 95% 30.18 in 2.5 mi East 12.7 mph - 0.13 in Rain Rain
6:35 PM 51.1 °F - 50.0 °F 96% 30.18 in 4.0 mi East 11.5 mph - 0.28 in Rain Rain
6:55 PM 51.3 °F - 50.0 °F 95% 30.16 in 3.0 mi ESE 10.4 mph - 0.47 in Rain Rain
7:15 PM 51.4 °F - 50.2 °F 95% 30.14 in 4.0 mi East 15.0 mph - 0.10 in Rain Rain
7:35 PM 51.4 °F - 50.2 °F 95% 30.14 in 4.0 mi ESE 9.2 mph 18.4 mph 0.23 in Rain Rain
7:55 PM 51.4 °F - 50.2 °F 95% 30.12 in 2.5 mi ESE 10.4 mph 16.1 mph 0.46 in Rain Heavy Rain
8:15 PM 52.0 °F - 50.9 °F 96% 30.11 in 5.0 mi ESE 11.5 mph 18.4 mph 0.06 in Rain Light Rain
8:35 PM 52.3 °F - 50.9 °F 95% 30.09 in 5.0 mi ESE 12.7 mph 18.4 mph 0.10 in Rain Light Rain
8:55 PM 52.5 °F - 51.1 °F 95% 30.09 in 5.0 mi ESE 12.7 mph 18.4 mph 0.15 in Rain Light Rain
9:15 PM 52.7 °F - 51.1 °F 94% 30.09 in 5.0 mi ESE 13.8 mph 19.6 mph 0.07 in Rain Rain
9:35 PM 52.3 °F - 50.9 °F 95% 30.08 in 4.0 mi SE 11.5 mph 20.7 mph 0.18 in Rain Rain
9:55 PM 52.3 °F - 51.1 °F 95% 30.07 in 5.0 mi ESE 12.7 mph - 0.28 in Rain Rain
10:15 PM 52.7 °F - 51.3 °F 95% 30.05 in 5.0 mi ESE 11.5 mph - 0.07 in Rain Rain
10:35 PM 53.1 °F - 51.8 °F 95% 30.04 in 5.0 mi East 6.9 mph - 0.14 in Rain Light Rain
10:55 PM 53.8 °F - 52.7 °F 96% 30.02 in 5.0 mi East 11.5 mph - 0.18 in Rain Light Rain
11:15 PM 54.5 °F - 53.1 °F 95% 30.01 in 3.0 mi East 11.5 mph - 0.11 in Rain Light Rain
11:35 PM 54.1 °F - 53.1 °F 96% 29.99 in 5.0 mi East 10.4 mph - 0.14 in Rain Light Rain
11:55 PM 54.3 °F - 53.2 °F 96% 29.98 in 4.0 mi East 6.9 mph - 0.20 in Rain Light Rain